createdAt,value
2022-11-27T00:01:35.369Z,32.03
2022-11-27T00:04:26.323Z,40.23
2022-11-27T00:07:16.746Z,40.10
2022-11-27T00:10:07.115Z,38.60
2022-11-27T00:12:57.760Z,35.43
2022-11-27T00:15:46.966Z,34.43
2022-11-27T00:18:36.978Z,34.57
2022-11-27T00:21:27.912Z,32.67
2022-11-27T00:24:17.322Z,27.70
2022-11-27T00:27:06.667Z,30.63
2022-11-27T00:29:57.613Z,29.60
2022-11-27T00:32:46.680Z,27.63
2022-11-27T00:35:36.426Z,29.43
2022-11-27T00:38:26.085Z,26.23
2022-11-27T00:41:17.605Z,26.80
2022-11-27T00:44:07.697Z,27.60
2022-11-27T00:46:58.777Z,22.13
2022-11-27T00:49:48.097Z,28.77
2022-11-27T00:52:37.079Z,24.27
2022-11-27T00:55:26.397Z,26.83
2022-11-27T00:58:15.797Z,23.80
2022-11-27T01:01:08.169Z,21.77
2022-11-27T01:04:01.587Z,25.37
2022-11-27T01:06:50.800Z,20.83
2022-11-27T01:09:39.916Z,23.47
2022-11-27T01:12:29.362Z,26.47
2022-11-27T01:15:18.449Z,20.43
2022-11-27T01:18:07.902Z,21.33
2022-11-27T01:20:58.094Z,20.10
2022-11-27T01:23:47.666Z,22.60
2022-11-27T01:26:36.912Z,21.57
2022-11-27T01:29:26.442Z,21.97
2022-11-27T01:32:16.095Z,18.93
2022-11-27T01:35:04.886Z,17.17
2022-11-27T01:37:55.718Z,19.00
2022-11-27T01:40:45.257Z,23.90
2022-11-27T01:43:44.485Z,25.00
2022-11-27T01:46:38.662Z,21.80
2022-11-27T01:49:32.358Z,24.20
2022-11-27T01:52:26.231Z,20.17
2022-11-27T01:55:22.096Z,21.73
2022-11-27T01:58:14.223Z,22.43
2022-11-27T02:01:04.044Z,24.07
2022-11-27T02:03:54.030Z,18.53
2022-11-27T02:06:43.549Z,19.87
2022-11-27T02:09:34.312Z,19.57
2022-11-27T02:12:27.233Z,20.83
2022-11-27T02:15:21.483Z,21.07
2022-11-27T02:18:18.895Z,23.43
2022-11-27T02:21:14.678Z,23.33
2022-11-27T02:24:26.286Z,24.00
2022-11-27T02:27:48.290Z,22.17
2022-11-27T02:30:44.963Z,24.73
2022-11-27T02:33:37.140Z,22.70
2022-11-27T02:36:31.972Z,23.03
2022-11-27T02:39:24.936Z,21.40
2022-11-27T02:42:18.752Z,19.90
2022-11-27T02:45:11.969Z,21.33
2022-11-27T02:48:02.939Z,19.70
2022-11-27T02:50:53.527Z,22.70
2022-11-27T02:53:49.993Z,20.23
2022-11-27T02:56:40.296Z,22.43
2022-11-27T02:59:32.837Z,20.53
2022-11-27T03:02:27.946Z,19.97
2022-11-27T03:05:22.013Z,24.03
2022-11-27T03:08:19.049Z,19.43
2022-11-27T03:11:10.393Z,19.37
2022-11-27T03:14:03.825Z,22.63
2022-11-27T03:17:05.165Z,22.13
2022-11-27T03:19:58.852Z,20.47
2022-11-27T03:22:50.246Z,24.73
2022-11-27T03:25:39.562Z,22.00
2022-11-27T03:28:31.031Z,23.93
2022-11-27T03:31:20.139Z,21.67
2022-11-27T03:34:09.559Z,20.90
2022-11-27T03:36:58.591Z,23.43
2022-11-27T03:39:49.496Z,19.27
2022-11-27T03:42:47.334Z,19.03
2022-11-27T03:45:42.195Z,19.00
2022-11-27T03:48:37.916Z,22.37
2022-11-27T03:51:37.153Z,23.07
2022-11-27T03:54:36.845Z,20.80
2022-11-27T03:57:31.962Z,19.40
2022-11-27T04:00:22.774Z,20.00
2022-11-27T04:03:14.406Z,18.90
2022-11-27T04:06:03.790Z,21.93
2022-11-27T04:08:53.507Z,18.43
2022-11-27T04:11:42.670Z,22.10
2022-11-27T04:14:35.228Z,19.13
2022-11-27T04:17:24.520Z,20.00
2022-11-27T04:20:15.429Z,15.90
2022-11-27T04:23:04.879Z,19.07
2022-11-27T04:25:53.584Z,19.97
2022-11-27T04:28:42.808Z,18.80
2022-11-27T04:31:33.800Z,18.53
2022-11-27T04:34:23.356Z,18.87
2022-11-27T04:37:12.585Z,18.83
2022-11-27T04:40:02.403Z,15.73
2022-11-27T04:42:52.155Z,18.07
2022-11-27T04:45:41.804Z,14.90
2022-11-27T04:48:32.384Z,15.13
2022-11-27T04:51:20.888Z,16.33
2022-11-27T04:54:10.134Z,18.00
2022-11-27T04:56:59.516Z,16.13
2022-11-27T04:59:50.152Z,22.10
2022-11-27T05:02:39.869Z,16.70
2022-11-27T05:05:30.892Z,15.40
2022-11-27T05:08:20.701Z,17.50
2022-11-27T05:11:13.101Z,17.03
2022-11-27T05:14:18.192Z,16.03
2022-11-27T05:17:07.529Z,14.10
2022-11-27T05:19:56.821Z,15.00
2022-11-27T05:22:48.260Z,18.67
2022-11-27T05:25:38.070Z,17.73
2022-11-27T05:28:27.682Z,17.77
2022-11-27T05:31:17.112Z,18.90
2022-11-27T05:34:06.859Z,17.50
2022-11-27T05:36:55.595Z,17.27
2022-11-27T05:39:46.485Z,14.80
2022-11-27T05:42:35.287Z,16.90
2022-11-27T05:45:25.075Z,17.73
2022-11-27T05:48:14.797Z,16.83
2022-11-27T05:51:05.013Z,16.37
2022-11-27T05:53:53.585Z,19.27
2022-11-27T05:56:43.992Z,19.73
2022-11-27T05:59:33.329Z,17.83
2022-11-27T06:02:27.910Z,21.50
2022-11-27T06:05:18.868Z,20.07
2022-11-27T06:08:07.872Z,17.73
2022-11-27T06:10:57.256Z,14.87
2022-11-27T06:13:48.925Z,19.27
2022-11-27T06:16:38.748Z,17.33
2022-11-27T06:19:28.333Z,19.87
2022-11-27T06:22:17.417Z,15.60
2022-11-27T06:25:07.259Z,18.50
2022-11-27T06:27:56.511Z,19.03
2022-11-27T06:30:47.096Z,18.27
2022-11-27T06:33:36.803Z,18.43
2022-11-27T06:36:31.420Z,19.73
2022-11-27T06:39:20.734Z,18.60
2022-11-27T06:42:10.094Z,16.67
2022-11-27T06:44:59.869Z,16.37
2022-11-27T06:47:51.005Z,19.87
2022-11-27T06:50:40.040Z,24.33
2022-11-27T06:53:29.247Z,17.13
2022-11-27T06:56:19.806Z,19.43
2022-11-27T06:59:09.652Z,20.63
2022-11-27T07:01:58.774Z,17.37
2022-11-27T07:04:49.868Z,18.27
2022-11-27T07:07:42.439Z,16.90
2022-11-27T07:10:35.939Z,18.37
2022-11-27T07:13:25.577Z,13.40
2022-11-27T07:16:15.311Z,17.50
2022-11-27T07:19:06.177Z,14.93
2022-11-27T07:21:57.158Z,18.97
2022-11-27T07:24:46.124Z,17.33
2022-11-27T07:27:35.351Z,18.20
2022-11-27T07:30:24.427Z,16.43
2022-11-27T07:33:13.860Z,21.90
2022-11-27T07:36:04.833Z,30.47
2022-11-27T07:38:55.308Z,18.43
2022-11-27T07:41:44.654Z,19.43
2022-11-27T07:44:33.935Z,18.40
2022-11-27T07:47:22.886Z,19.17
2022-11-27T07:50:13.401Z,20.13
2022-11-27T07:53:02.493Z,25.03
2022-11-27T07:55:52.999Z,18.33
2022-11-27T07:58:42.174Z,19.90
2022-11-27T08:01:31.865Z,18.70
2022-11-27T08:04:21.554Z,19.87
2022-11-27T08:07:10.994Z,20.43
2022-11-27T08:10:00.344Z,20.93
2022-11-27T08:12:51.639Z,20.73
2022-11-27T08:15:41.119Z,21.17
2022-11-27T08:18:30.900Z,28.33
2022-11-27T08:21:19.897Z,24.07
2022-11-27T08:24:09.543Z,22.90
2022-11-27T08:26:58.923Z,22.93
2022-11-27T08:29:49.736Z,25.40
2022-11-27T08:32:40.712Z,25.90
2022-11-27T08:35:29.934Z,26.47
2022-11-27T08:38:19.027Z,23.23
2022-11-27T08:41:09.601Z,25.53
2022-11-27T08:43:59.080Z,24.97
2022-11-27T08:46:49.742Z,28.27
2022-11-27T08:49:42.527Z,22.83
2022-11-27T08:52:33.830Z,25.53
2022-11-27T08:55:22.921Z,22.70
2022-11-27T08:58:12.197Z,24.30
2022-11-27T09:01:01.375Z,23.00
2022-11-27T09:03:53.261Z,25.00
2022-11-27T09:06:44.977Z,24.30
2022-11-27T09:09:33.920Z,23.10
2022-11-27T09:12:23.848Z,24.93
2022-11-27T09:15:13.795Z,25.43
2022-11-27T09:18:02.769Z,21.43
2022-11-27T09:20:58.987Z,20.87
2022-11-27T09:23:48.240Z,21.03
2022-11-27T09:26:36.991Z,19.37
2022-11-27T09:29:27.847Z,20.03
2022-11-27T09:32:17.187Z,20.93
2022-11-27T09:35:07.142Z,17.87
2022-11-27T09:37:57.604Z,19.83
2022-11-27T09:40:49.872Z,21.23
2022-11-27T09:43:45.922Z,26.97
2022-11-27T09:46:40.349Z,24.00
2022-11-27T09:49:35.107Z,27.23
2022-11-27T09:52:28.017Z,27.60
2022-11-27T09:55:25.211Z,29.07
2022-11-27T09:58:18.430Z,29.00
2022-11-27T10:01:18.171Z,27.07
2022-11-27T10:04:08.255Z,28.80
2022-11-27T10:07:08.386Z,31.77
2022-11-27T10:10:08.476Z,28.67
2022-11-27T10:13:08.164Z,27.13
2022-11-27T10:16:02.672Z,30.25
2022-11-27T10:18:55.816Z,28.05
2022-11-27T10:21:51.095Z,30.00
2022-11-27T10:24:46.049Z,27.67
2022-11-27T10:27:42.274Z,31.33
2022-11-27T10:30:38.074Z,26.50
2022-11-27T10:33:32.343Z,27.02
2022-11-27T10:36:32.414Z,29.17
2022-11-27T10:39:30.466Z,27.63
2022-11-27T10:42:26.280Z,29.48
2022-11-27T10:45:23.760Z,32.15
2022-11-27T10:48:14.855Z,27.95
2022-11-27T10:51:04.408Z,29.40
2022-11-27T10:53:55.797Z,27.45
2022-11-27T10:56:57.605Z,27.88
2022-11-27T10:59:52.316Z,28.05
2022-11-27T11:02:42.589Z,25.42
2022-11-27T11:06:04.212Z,26.27
2022-11-27T11:08:44.121Z,25.00
2022-11-27T11:11:33.549Z,30.52
2022-11-27T11:14:23.688Z,37.88
2022-11-27T11:17:18.851Z,31.83
2022-11-27T11:20:16.860Z,36.92
2022-11-27T11:23:08.710Z,30.27
2022-11-27T11:25:59.222Z,27.83
2022-11-27T11:28:53.209Z,30.05
2022-11-27T11:31:42.554Z,30.58
2022-11-27T11:34:32.626Z,23.10
2022-11-27T11:37:24.669Z,21.40
2022-11-27T11:40:25.827Z,27.13
2022-11-27T11:43:26.403Z,27.27
2022-11-27T11:46:22.579Z,28.38
2022-11-27T11:49:21.140Z,22.77
2022-11-27T11:52:37.228Z,21.63
2022-11-27T11:55:32.648Z,22.05
2022-11-27T11:58:38.605Z,24.35
2022-11-27T12:01:54.567Z,23.05
2022-11-27T12:05:11.091Z,25.67
2022-11-27T12:08:21.467Z,25.77
2022-11-27T12:11:16.286Z,35.53
2022-11-27T12:14:15.226Z,34.63
2022-11-27T12:17:19.901Z,33.42
2022-11-27T12:20:18.671Z,24.55
2022-11-27T12:23:35.656Z,29.80
2022-11-27T12:26:34.421Z,28.42
2022-11-27T12:29:47.171Z,29.67
2022-11-27T12:33:00.869Z,28.40
2022-11-27T12:36:00.543Z,26.23
2022-11-27T12:39:12.189Z,27.08
2022-11-27T12:42:21.764Z,25.20
2022-11-27T12:45:20.341Z,23.70
2022-11-27T12:48:16.308Z,22.95
2022-11-27T12:51:11.108Z,17.73
2022-11-27T12:54:04.525Z,20.92
2022-11-27T12:56:58.941Z,17.13
2022-11-27T12:59:55.986Z,20.58
2022-11-27T13:02:51.555Z,28.70
2022-11-27T13:05:44.209Z,23.00
2022-11-27T13:08:52.115Z,22.17
2022-11-27T13:11:42.991Z,24.58
2022-11-27T13:14:37.320Z,40.70
2022-11-27T13:17:33.955Z,30.70
2022-11-27T13:20:31.513Z,31.38
2022-11-27T13:23:20.882Z,27.25
2022-11-27T13:26:22.008Z,23.73
2022-11-27T13:29:26.414Z,20.05
2022-11-27T13:32:23.371Z,15.70
2022-11-27T13:35:23.605Z,16.00
2022-11-27T13:38:15.452Z,15.25
2022-11-27T13:41:06.698Z,15.75
2022-11-27T13:43:57.895Z,14.82
2022-11-27T13:46:54.000Z,14.57
2022-11-27T13:49:43.731Z,17.00
2022-11-27T13:52:35.140Z,14.55
2022-11-27T13:55:29.210Z,16.02
2022-11-27T13:58:30.375Z,17.13
2022-11-27T14:01:21.596Z,19.80
2022-11-27T14:04:11.461Z,17.73
2022-11-27T14:07:06.672Z,18.42
2022-11-27T14:10:07.202Z,16.92
2022-11-27T14:13:00.871Z,14.60
2022-11-27T14:16:02.235Z,15.13
2022-11-27T14:18:53.245Z,13.65
2022-11-27T14:21:44.816Z,13.85
2022-11-27T14:24:41.789Z,13.38
2022-11-27T14:27:36.967Z,13.15
2022-11-27T14:30:35.245Z,14.90
2022-11-27T14:33:25.738Z,13.38
2022-11-27T14:36:24.668Z,17.67
2022-11-27T14:39:22.985Z,17.38
2022-11-27T14:42:28.227Z,19.33
2022-11-27T14:45:21.826Z,16.67
2022-11-27T14:48:21.321Z,15.57
2022-11-27T14:51:15.534Z,18.65
2022-11-27T14:54:06.651Z,23.23
2022-11-27T14:56:56.485Z,20.48
2022-11-27T14:59:46.155Z,20.10
2022-11-27T15:02:37.192Z,20.55
2022-11-27T15:05:29.073Z,20.17
2022-11-27T15:08:18.980Z,19.38
2022-11-27T15:11:08.103Z,19.67
2022-11-27T15:14:00.475Z,24.33
2022-11-27T15:16:53.327Z,24.83
2022-11-27T15:19:44.608Z,21.40
2022-11-27T15:22:33.937Z,18.57
2022-11-27T15:25:39.381Z,20.23
2022-11-27T15:28:36.342Z,19.53
2022-11-27T15:31:31.083Z,22.47
2022-11-27T15:34:24.348Z,18.13
2022-11-27T15:37:24.874Z,24.93
2022-11-27T15:40:26.875Z,22.77
2022-11-27T15:43:16.864Z,25.30
2022-11-27T15:46:08.758Z,25.25
2022-11-27T15:48:57.584Z,26.87
2022-11-27T15:51:47.301Z,26.27
2022-11-27T15:54:37.200Z,22.60
2022-11-27T15:57:26.536Z,21.37
2022-11-27T16:00:16.384Z,21.17
2022-11-27T16:03:05.705Z,21.60
2022-11-27T16:05:54.792Z,23.13
2022-11-27T16:08:45.895Z,23.63
2022-11-27T16:11:36.147Z,22.13
2022-11-27T16:14:25.340Z,22.17
2022-11-27T16:17:14.697Z,17.60
2022-11-27T16:20:04.235Z,24.37
2022-11-27T16:22:53.959Z,20.40
2022-11-27T16:25:43.186Z,24.83
2022-11-27T16:28:34.454Z,22.30
2022-11-27T16:31:23.965Z,21.20
2022-11-27T16:34:13.350Z,24.30
2022-11-27T16:37:02.438Z,21.77
2022-11-27T16:39:51.525Z,25.10
2022-11-27T16:42:41.606Z,23.00
2022-11-27T16:45:32.488Z,24.30
2022-11-27T16:48:21.902Z,21.63
2022-11-27T16:51:14.101Z,24.17
2022-11-27T16:54:05.463Z,21.43
2022-11-27T16:56:54.986Z,22.60
2022-11-27T16:59:44.062Z,24.23
2022-11-27T17:02:36.123Z,20.00
2022-11-27T17:05:25.291Z,21.37
2022-11-27T17:08:14.520Z,23.27
2022-11-27T17:11:10.517Z,23.27
2022-11-27T17:14:01.266Z,26.97
2022-11-27T17:16:50.668Z,30.97
2022-11-27T17:19:41.568Z,33.13
2022-11-27T17:22:30.952Z,31.17
2022-11-27T17:25:19.794Z,30.83
2022-11-27T17:28:08.975Z,30.53
2022-11-27T17:30:58.168Z,27.83
2022-11-27T17:33:47.879Z,27.40
2022-11-27T17:36:38.784Z,26.20
2022-11-27T17:39:27.893Z,33.00
2022-11-27T17:42:22.404Z,27.63
2022-11-27T17:45:13.100Z,29.03
2022-11-27T17:48:02.273Z,25.10
2022-11-27T17:50:51.835Z,36.80
2022-11-27T17:53:42.934Z,32.60
2022-11-27T17:56:32.447Z,32.07
2022-11-27T17:59:21.914Z,36.53
2022-11-27T18:02:12.506Z,36.53
2022-11-27T18:05:01.895Z,40.93
2022-11-27T18:07:51.099Z,39.20
2022-11-27T18:10:42.141Z,39.90
2022-11-27T18:13:32.840Z,38.43
2022-11-27T18:16:24.287Z,39.07
2022-11-27T18:19:13.421Z,33.53
2022-11-27T18:22:02.783Z,40.40
2022-11-27T18:24:52.328Z,35.10
2022-11-27T18:27:42.928Z,41.90
2022-11-27T18:30:31.735Z,38.90
2022-11-27T18:33:20.537Z,34.30
2022-11-27T18:36:12.036Z,37.80
2022-11-27T18:39:04.767Z,40.30
2022-11-27T18:41:53.591Z,40.77
2022-11-27T18:44:45.327Z,34.93
2022-11-27T18:47:34.954Z,36.47
2022-11-27T18:50:29.349Z,35.83
2022-11-27T18:53:19.390Z,38.13
2022-11-27T18:56:11.738Z,40.00
2022-11-27T18:59:03.395Z,37.60
2022-11-27T19:01:54.431Z,36.03
2022-11-27T19:04:45.184Z,45.13
2022-11-27T19:07:34.638Z,42.23
2022-11-27T19:10:24.354Z,41.07
2022-11-27T19:13:13.459Z,37.87
2022-11-27T19:16:06.425Z,46.00
2022-11-27T19:18:57.775Z,38.93
2022-11-27T19:21:47.411Z,36.23
2022-11-27T19:24:36.839Z,38.17
2022-11-27T19:27:26.255Z,38.13
2022-11-27T19:30:16.582Z,41.50
2022-11-27T19:33:06.197Z,35.60
2022-11-27T19:36:01.243Z,40.93
2022-11-27T19:38:56.480Z,43.97
2022-11-27T19:41:45.719Z,44.40
2022-11-27T19:44:34.822Z,39.63
2022-11-27T19:47:24.522Z,36.83
2022-11-27T19:50:14.026Z,38.30
2022-11-27T19:53:07.445Z,41.43
2022-11-27T19:55:56.827Z,43.83
2022-11-27T19:58:46.092Z,36.67
2022-11-27T20:01:35.049Z,35.60
2022-11-27T20:04:24.082Z,37.53
2022-11-27T20:07:13.506Z,40.47
2022-11-27T20:10:04.318Z,40.00
2022-11-27T20:12:53.765Z,38.07
2022-11-27T20:15:42.916Z,40.63
2022-11-27T20:18:32.094Z,33.67
2022-11-27T20:21:23.144Z,34.20
2022-11-27T20:24:12.704Z,33.23
2022-11-27T20:27:03.093Z,33.30
2022-11-27T20:29:54.008Z,35.70
2022-11-27T20:32:43.629Z,33.13
2022-11-27T20:35:32.673Z,33.07
2022-11-27T20:38:21.757Z,33.00
2022-11-27T20:41:12.902Z,32.77
2022-11-27T20:44:04.886Z,32.93
2022-11-27T20:46:54.086Z,32.63
2022-11-27T20:49:43.925Z,30.37
2022-11-27T20:52:33.231Z,37.30
2022-11-27T20:55:22.794Z,30.07
2022-11-27T20:58:11.671Z,26.67
2022-11-27T21:01:02.990Z,29.53
2022-11-27T21:03:53.505Z,26.10
2022-11-27T21:06:44.281Z,30.87
2022-11-27T21:09:34.605Z,28.60
2022-11-27T21:12:23.762Z,32.83
2022-11-27T21:15:14.295Z,31.13
2022-11-27T21:18:05.163Z,30.40
2022-11-27T21:20:54.319Z,28.67
2022-11-27T21:23:43.931Z,30.77
2022-11-27T21:26:33.530Z,38.97
2022-11-27T21:29:26.010Z,33.17
2022-11-27T21:32:18.271Z,32.07
2022-11-27T21:35:10.024Z,33.03
2022-11-27T21:37:59.132Z,36.23
2022-11-27T21:40:48.294Z,34.67
2022-11-27T21:43:37.436Z,34.70
2022-11-27T21:46:28.199Z,37.00
2022-11-27T21:49:17.976Z,40.07
2022-11-27T21:52:09.069Z,39.20
2022-11-27T21:54:58.059Z,39.80
2022-11-27T21:57:46.819Z,39.67
2022-11-27T22:00:36.765Z,39.53
2022-11-27T22:03:25.921Z,36.63
2022-11-27T22:06:16.815Z,34.10
2022-11-27T22:09:11.988Z,32.63
2022-11-27T22:12:04.980Z,35.83
2022-11-27T22:14:54.090Z,36.37
2022-11-27T22:17:42.922Z,31.93
2022-11-27T22:20:31.876Z,32.13
2022-11-27T22:23:20.733Z,29.53
2022-11-27T22:26:13.142Z,34.67
2022-11-27T22:29:02.093Z,31.33
2022-11-27T22:31:53.265Z,32.23
2022-11-27T22:34:42.624Z,33.83
2022-11-27T22:37:32.110Z,32.37
2022-11-27T22:40:21.850Z,35.87
2022-11-27T22:43:12.452Z,31.97
2022-11-27T22:46:02.143Z,34.33
2022-11-27T22:48:55.494Z,32.60
2022-11-27T22:51:44.891Z,31.03
2022-11-27T22:54:33.916Z,32.13
2022-11-27T22:57:23.110Z,30.23
2022-11-27T23:03:35.946Z,31.70
2022-11-27T23:06:25.800Z,31.80
2022-11-27T23:09:14.993Z,29.63
2022-11-27T23:12:04.847Z,34.10
2022-11-27T23:14:56.151Z,38.43
2022-11-27T23:17:46.308Z,30.50
2022-11-27T23:20:36.119Z,29.00
2022-11-27T23:23:25.893Z,30.73
2022-11-27T23:26:18.403Z,29.20
2022-11-27T23:29:07.872Z,27.63
2022-11-27T23:31:56.668Z,28.80
2022-11-27T23:34:47.661Z,28.87
2022-11-27T23:37:37.321Z,30.93
2022-11-27T23:40:26.034Z,26.43
2022-11-27T23:43:15.497Z,32.13
2022-11-27T23:46:04.937Z,30.40
2022-11-27T23:48:56.108Z,27.63
2022-11-27T23:51:47.191Z,28.10
2022-11-27T23:54:36.257Z,28.53
2022-11-27T23:57:25.428Z,29.83
